createdAt,value
2022-11-16T00:00:54.137Z,10.20
2022-11-16T00:01:54.188Z,14.20
2022-11-16T00:02:54.113Z,13.20
2022-11-16T00:03:54.095Z,11.10
2022-11-16T00:04:54.113Z,8.30
2022-11-16T00:05:54.088Z,8.90
2022-11-16T00:06:54.102Z,10.20
2022-11-16T00:07:54.064Z,8.80
2022-11-16T00:08:54.052Z,9.80
2022-11-16T00:09:54.088Z,9.90
2022-11-16T00:10:54.025Z,8.60
2022-11-16T00:11:54.027Z,6.80
2022-11-16T00:12:54.009Z,5.90
2022-11-16T00:13:54.006Z,8.50
2022-11-16T00:14:54.029Z,8.00
2022-11-16T00:15:53.995Z,7.00
2022-11-16T00:16:53.977Z,7.60
2022-11-16T00:17:53.960Z,7.90
2022-11-16T00:18:53.968Z,6.30
2022-11-16T00:19:53.973Z,7.70
2022-11-16T00:20:53.976Z,7.10
2022-11-16T00:21:53.931Z,6.50
2022-11-16T00:22:53.918Z,7.20
2022-11-16T00:23:53.903Z,6.90
2022-11-16T00:24:53.894Z,6.90
2022-11-16T00:25:53.922Z,7.70
2022-11-16T00:26:53.883Z,5.80
2022-11-16T00:27:53.879Z,8.00
2022-11-16T00:28:53.859Z,6.90
2022-11-16T00:29:53.859Z,6.60
2022-11-16T00:30:53.842Z,5.40
2022-11-16T00:31:53.865Z,5.50
2022-11-16T00:32:53.820Z,5.30
2022-11-16T00:33:53.822Z,5.30
2022-11-16T00:34:53.805Z,6.00
2022-11-16T00:35:53.789Z,6.30
2022-11-16T00:36:53.803Z,6.20
2022-11-16T00:37:53.776Z,5.10
2022-11-16T00:38:53.827Z,7.40
2022-11-16T00:39:53.794Z,5.50
2022-11-16T00:40:53.758Z,6.20
2022-11-16T00:41:53.733Z,7.20
2022-11-16T00:42:53.733Z,5.80
2022-11-16T00:43:53.727Z,5.30
2022-11-16T00:44:53.749Z,5.50
2022-11-16T00:45:53.776Z,5.80
2022-11-16T00:46:53.694Z,6.30
2022-11-16T00:47:59.152Z,5.80
2022-11-16T00:48:55.678Z,6.40
2022-11-16T00:49:53.675Z,6.00
2022-11-16T00:50:53.682Z,8.40
2022-11-16T00:51:53.636Z,6.30
2022-11-16T00:52:53.644Z,5.70
2022-11-16T00:53:53.620Z,6.20
2022-11-16T00:54:53.611Z,6.20
2022-11-16T00:55:53.640Z,6.50
2022-11-16T00:56:53.620Z,6.50
2022-11-16T00:57:53.580Z,6.20
2022-11-16T00:58:53.633Z,6.90
2022-11-16T00:59:53.631Z,6.20
2022-11-16T01:00:53.590Z,7.00
2022-11-16T01:01:53.603Z,7.10
2022-11-16T01:02:53.563Z,7.80
2022-11-16T01:03:53.559Z,6.70
2022-11-16T01:04:53.529Z,6.40
2022-11-16T01:05:53.515Z,6.80
2022-11-16T01:06:53.537Z,7.40
2022-11-16T01:07:53.512Z,7.90
2022-11-16T01:08:53.467Z,7.00
2022-11-16T01:09:53.486Z,6.20
2022-11-16T01:10:53.456Z,7.20
2022-11-16T01:11:53.445Z,6.80
2022-11-16T01:12:53.451Z,7.30
2022-11-16T01:13:53.449Z,6.90
2022-11-16T01:14:53.417Z,7.90
2022-11-16T01:15:53.397Z,7.40
2022-11-16T01:16:53.419Z,6.90
2022-11-16T01:17:53.388Z,6.10
2022-11-16T01:18:53.377Z,6.90
2022-11-16T01:19:53.392Z,7.20
2022-11-16T01:20:53.362Z,6.90
2022-11-16T01:21:53.351Z,8.10
2022-11-16T01:22:53.352Z,8.00
2022-11-16T01:23:53.350Z,7.40
2022-11-16T01:24:53.333Z,8.60
2022-11-16T01:25:53.316Z,6.90
2022-11-16T01:26:53.309Z,6.80
2022-11-16T01:27:53.295Z,7.10
2022-11-16T01:28:53.299Z,7.90
2022-11-16T01:29:54.272Z,6.80
2022-11-16T01:30:53.274Z,6.90
2022-11-16T01:31:53.266Z,9.40
2022-11-16T01:32:53.243Z,8.50
2022-11-16T01:33:53.238Z,8.50
2022-11-16T01:34:53.230Z,7.50
2022-11-16T01:35:53.225Z,7.40
2022-11-16T01:36:53.211Z,7.70
2022-11-16T01:37:53.213Z,7.50
2022-11-16T01:38:53.194Z,7.50
2022-11-16T01:39:53.162Z,7.80
2022-11-16T01:40:53.227Z,7.50
2022-11-16T01:41:53.155Z,7.40
2022-11-16T01:42:53.155Z,7.10
2022-11-16T01:43:53.140Z,7.10
2022-11-16T01:44:53.121Z,7.60
2022-11-16T01:45:53.147Z,7.20
2022-11-16T01:46:53.109Z,7.20
2022-11-16T01:47:53.116Z,8.10
2022-11-16T01:48:53.082Z,7.70
2022-11-16T01:49:53.087Z,6.80
2022-11-16T01:50:53.062Z,7.80
2022-11-16T01:51:53.069Z,7.80
2022-11-16T01:52:53.035Z,9.20
2022-11-16T01:53:53.029Z,8.10
2022-11-16T01:54:53.022Z,7.90
2022-11-16T01:55:53.036Z,7.80
2022-11-16T01:56:53.017Z,8.40
2022-11-16T01:57:53.000Z,8.30
2022-11-16T01:58:53.005Z,8.70
2022-11-16T01:59:52.979Z,7.70
2022-11-16T02:00:53.061Z,9.00
2022-11-16T02:01:52.958Z,7.60
2022-11-16T02:02:52.955Z,7.30
2022-11-16T02:03:52.943Z,8.30
2022-11-16T02:04:52.924Z,8.20
2022-11-16T02:05:52.956Z,9.00
2022-11-16T02:06:52.934Z,8.30
2022-11-16T02:07:52.941Z,8.30
2022-11-16T02:08:52.895Z,9.10
2022-11-16T02:09:52.889Z,9.60
2022-11-16T02:10:52.876Z,14.70
2022-11-16T02:11:52.858Z,14.10
2022-11-16T02:12:53.887Z,15.50
2022-11-16T02:13:52.868Z,14.60
2022-11-16T02:14:52.832Z,12.80
2022-11-16T02:15:52.833Z,9.90
2022-11-16T02:16:52.835Z,10.20
2022-11-16T02:17:52.818Z,11.70
2022-11-16T02:18:52.814Z,13.30
2022-11-16T02:19:52.780Z,12.90
2022-11-16T02:20:52.786Z,12.90
2022-11-16T02:21:52.766Z,12.60
2022-11-16T02:22:52.745Z,12.40
2022-11-16T02:23:52.758Z,11.50
2022-11-16T02:24:52.776Z,12.10
2022-11-16T02:25:52.717Z,12.30
2022-11-16T02:26:52.711Z,11.40
2022-11-16T02:27:52.714Z,14.00
2022-11-16T02:28:52.702Z,13.00
2022-11-16T02:29:52.711Z,13.00
2022-11-16T02:30:52.674Z,12.50
2022-11-16T02:31:52.665Z,12.00
2022-11-16T02:32:52.670Z,12.70
2022-11-16T02:33:52.641Z,11.00
2022-11-16T02:34:52.637Z,12.00
2022-11-16T02:35:52.643Z,11.50
2022-11-16T02:36:52.608Z,10.60
2022-11-16T02:37:52.605Z,11.40
2022-11-16T02:38:52.612Z,11.90
2022-11-16T02:39:52.581Z,12.70
2022-11-16T02:40:52.582Z,13.40
2022-11-16T02:41:52.582Z,11.20
2022-11-16T02:42:52.544Z,11.40
2022-11-16T02:43:52.552Z,12.20
2022-11-16T02:44:52.588Z,13.50
2022-11-16T02:45:52.530Z,12.90
2022-11-16T02:46:52.520Z,11.80
2022-11-16T02:47:52.515Z,12.20
2022-11-16T02:48:52.492Z,13.70
2022-11-16T02:49:52.512Z,13.00
2022-11-16T02:50:52.500Z,12.90
2022-11-16T02:51:52.478Z,10.80
2022-11-16T02:52:52.474Z,9.90
2022-11-16T02:53:52.472Z,9.80
2022-11-16T02:56:10.910Z,11.40
2022-11-16T02:57:10.914Z,11.20
2022-11-16T02:58:10.897Z,11.10
2022-11-16T02:59:15.245Z,12.30
2022-11-16T03:00:10.881Z,12.80
2022-11-16T03:01:10.932Z,11.90
2022-11-16T03:02:10.869Z,12.20
2022-11-16T03:03:10.856Z,13.30
2022-11-16T03:04:10.837Z,11.80
2022-11-16T03:05:10.834Z,10.50
2022-11-16T03:06:10.821Z,10.60
2022-11-16T03:07:10.860Z,12.00
2022-11-16T03:08:10.801Z,11.00
2022-11-16T03:09:10.797Z,13.10
2022-11-16T03:10:10.785Z,10.10
2022-11-16T03:11:10.782Z,10.00
2022-11-16T03:12:10.763Z,12.00
2022-11-16T03:13:11.909Z,11.60
2022-11-16T03:14:11.875Z,10.40
2022-11-16T03:15:11.879Z,11.60
2022-11-16T03:16:11.855Z,11.50
2022-11-16T03:17:11.838Z,10.20
2022-11-16T03:18:11.831Z,10.80
2022-11-16T03:19:12.851Z,11.40
2022-11-16T03:20:11.816Z,11.40
2022-11-16T03:21:11.800Z,9.90
2022-11-16T03:22:11.787Z,11.40
2022-11-16T03:23:11.781Z,10.20
2022-11-16T03:24:11.786Z,11.10
2022-11-16T03:25:11.755Z,11.10
2022-11-16T03:26:11.768Z,11.20
2022-11-16T03:27:11.741Z,11.70
2022-11-16T03:28:11.730Z,10.30
2022-11-16T03:29:11.721Z,13.00
2022-11-16T03:30:11.710Z,12.80
2022-11-16T03:31:12.751Z,11.30
2022-11-16T03:32:11.709Z,11.00
2022-11-16T03:33:11.670Z,11.60
2022-11-16T03:34:11.671Z,11.20
2022-11-16T03:35:11.665Z,10.80
2022-11-16T03:36:11.675Z,11.70
2022-11-16T03:37:11.640Z,10.30
2022-11-16T03:38:11.648Z,11.60
2022-11-16T03:39:11.634Z,10.70
2022-11-16T03:40:11.612Z,11.60
2022-11-16T03:41:11.609Z,11.10
2022-11-16T03:42:11.616Z,11.40
2022-11-16T03:43:11.586Z,12.00
2022-11-16T03:44:11.580Z,11.00
2022-11-16T03:45:11.600Z,11.50
2022-11-16T03:46:11.552Z,11.50
2022-11-16T03:47:11.560Z,12.30
2022-11-16T03:48:11.533Z,11.10
2022-11-16T03:49:11.526Z,11.80
2022-11-16T03:50:11.552Z,12.90
2022-11-16T03:51:11.521Z,11.40
2022-11-16T03:52:11.525Z,11.30
2022-11-16T03:53:11.489Z,11.50
2022-11-16T03:54:11.479Z,11.50
2022-11-16T03:55:11.463Z,10.40
2022-11-16T03:56:11.458Z,10.80
2022-11-16T03:57:11.467Z,11.60
2022-11-16T03:58:11.445Z,12.00
2022-11-16T03:59:11.426Z,12.80
2022-11-16T04:00:11.408Z,12.50
2022-11-16T04:01:11.498Z,14.50
2022-11-16T04:02:11.399Z,11.50
2022-11-16T04:03:11.400Z,14.00
2022-11-16T04:04:11.370Z,12.30
2022-11-16T04:05:11.372Z,13.90
2022-11-16T04:06:11.360Z,12.30
2022-11-16T04:07:11.375Z,13.40
2022-11-16T04:08:11.342Z,12.80
2022-11-16T04:09:11.389Z,13.30
2022-11-16T04:10:11.320Z,12.70
2022-11-16T04:11:11.313Z,11.50
2022-11-16T04:12:11.308Z,10.70
2022-11-16T04:13:11.295Z,10.60
2022-11-16T04:14:11.301Z,11.80
2022-11-16T04:15:11.267Z,10.80
2022-11-16T04:16:11.264Z,11.30
2022-11-16T04:17:11.250Z,12.70
2022-11-16T04:18:11.242Z,11.60
2022-11-16T04:19:11.222Z,11.50
2022-11-16T04:20:11.245Z,12.60
2022-11-16T04:21:11.216Z,11.60
2022-11-16T04:22:11.196Z,12.40
2022-11-16T04:23:11.187Z,13.40
2022-11-16T04:24:11.186Z,12.50
2022-11-16T04:25:11.188Z,11.50
2022-11-16T04:26:11.159Z,11.30
2022-11-16T04:27:11.153Z,13.30
2022-11-16T04:28:11.135Z,12.50
2022-11-16T04:29:11.139Z,13.40
2022-11-16T04:30:11.115Z,13.20
2022-11-16T04:31:11.137Z,11.10
2022-11-16T04:32:11.085Z,12.30
2022-11-16T04:33:11.091Z,12.00
2022-11-16T04:34:11.094Z,12.60
2022-11-16T04:35:11.075Z,12.60
2022-11-16T04:36:11.071Z,11.00
2022-11-16T04:37:11.050Z,13.70
2022-11-16T04:38:11.039Z,13.30
2022-11-16T04:39:11.025Z,12.20
2022-11-16T04:40:11.028Z,13.90
2022-11-16T04:41:11.018Z,12.50
2022-11-16T04:42:11.047Z,12.40
2022-11-16T04:43:10.984Z,13.80
2022-11-16T04:44:10.991Z,13.00
2022-11-16T04:45:10.984Z,11.90
2022-11-16T04:46:10.978Z,12.70
2022-11-16T04:47:10.953Z,12.80
2022-11-16T04:48:10.965Z,11.90
2022-11-16T04:49:10.995Z,12.70
2022-11-16T04:50:10.926Z,12.60
2022-11-16T04:51:10.911Z,14.50
2022-11-16T04:52:10.909Z,13.40
2022-11-16T04:53:10.918Z,12.80
2022-11-16T04:54:10.888Z,12.70
2022-11-16T04:55:10.873Z,13.00
2022-11-16T04:56:10.870Z,13.60
2022-11-16T04:57:10.855Z,12.00
2022-11-16T04:58:10.871Z,13.00
2022-11-16T04:59:10.834Z,14.20
2022-11-16T05:00:10.825Z,14.80
2022-11-16T05:01:10.882Z,13.80
2022-11-16T05:02:10.814Z,14.30
2022-11-16T05:03:10.825Z,13.50
2022-11-16T05:04:10.785Z,15.50
2022-11-16T05:05:10.775Z,16.60
2022-11-16T05:06:10.776Z,14.20
2022-11-16T05:07:10.862Z,14.20
2022-11-16T05:08:11.762Z,13.70
2022-11-16T05:09:10.752Z,14.80
2022-11-16T05:10:10.737Z,13.50
2022-11-16T05:11:10.726Z,13.50
2022-11-16T05:12:10.733Z,12.70
2022-11-16T05:13:10.705Z,13.90
2022-11-16T05:14:10.695Z,13.60
2022-11-16T05:15:10.685Z,12.90
2022-11-16T05:16:10.670Z,12.70
2022-11-16T05:17:10.682Z,13.90
2022-11-16T05:18:10.651Z,16.50
2022-11-16T05:19:10.636Z,14.30
2022-11-16T05:20:10.633Z,16.60
2022-11-16T05:21:10.629Z,13.50
2022-11-16T05:22:10.650Z,12.60
2022-11-16T05:23:10.609Z,13.70
2022-11-16T05:24:10.603Z,13.10
2022-11-16T05:25:10.583Z,14.60
2022-11-16T05:26:10.572Z,13.40
2022-11-16T05:27:10.591Z,16.70
2022-11-16T05:28:10.567Z,16.20
2022-11-16T05:29:10.580Z,15.00
2022-11-16T05:30:10.532Z,14.20
2022-11-16T05:31:10.519Z,17.10
2022-11-16T05:32:10.514Z,14.80
2022-11-16T05:33:10.511Z,17.00
2022-11-16T05:34:10.515Z,15.70
2022-11-16T05:35:10.484Z,14.90
2022-11-16T05:36:10.477Z,17.40
2022-11-16T05:37:10.486Z,17.10
2022-11-16T05:38:10.462Z,19.30
2022-11-16T05:39:10.469Z,16.60
2022-11-16T05:40:10.471Z,17.90
2022-11-16T05:41:10.429Z,17.70
2022-11-16T05:42:10.416Z,16.20
2022-11-16T05:43:10.426Z,15.10
2022-11-16T05:44:10.403Z,15.60
2022-11-16T05:45:10.404Z,14.00
2022-11-16T05:46:10.376Z,16.90
2022-11-16T05:47:10.374Z,17.40
2022-11-16T05:48:10.366Z,15.50
2022-11-16T05:49:10.347Z,16.30
2022-11-16T05:50:10.362Z,16.20
2022-11-16T05:51:10.359Z,14.50
2022-11-16T05:52:10.347Z,16.40
2022-11-16T05:53:10.320Z,15.40
2022-11-16T05:54:10.306Z,15.30
2022-11-16T05:55:10.288Z,14.70
2022-11-16T05:56:10.351Z,15.40
2022-11-16T05:57:10.307Z,15.20
2022-11-16T05:58:10.254Z,14.30
2022-11-16T05:59:16.202Z,13.90
2022-11-16T06:00:11.252Z,14.70
2022-11-16T06:01:10.237Z,14.60
2022-11-16T06:02:10.216Z,15.80
2022-11-16T06:03:11.372Z,15.70
2022-11-16T06:04:10.204Z,15.20
2022-11-16T06:05:10.190Z,15.60
2022-11-16T06:06:10.177Z,15.60
2022-11-16T06:07:10.206Z,17.00
2022-11-16T06:08:10.325Z,15.20
2022-11-16T06:09:10.153Z,16.30
2022-11-16T06:10:10.143Z,18.70
2022-11-16T06:11:10.134Z,15.30
2022-11-16T06:12:10.127Z,14.00
2022-11-16T06:13:10.106Z,14.90
2022-11-16T06:14:10.122Z,15.10
2022-11-16T06:15:10.091Z,14.90
2022-11-16T06:16:10.289Z,14.60
2022-11-16T06:17:10.073Z,14.80
2022-11-16T06:18:10.061Z,14.90
2022-11-16T06:19:10.074Z,14.30
2022-11-16T06:20:10.047Z,16.10
2022-11-16T06:21:10.042Z,14.00
2022-11-16T06:22:10.018Z,15.20
2022-11-16T06:23:10.026Z,15.50
2022-11-16T06:24:10.067Z,15.70
2022-11-16T06:25:10.000Z,18.20
2022-11-16T06:26:09.983Z,14.50
2022-11-16T06:27:09.966Z,14.60
2022-11-16T06:28:09.955Z,16.10
2022-11-16T06:29:09.954Z,16.90
2022-11-16T06:30:09.955Z,15.20
2022-11-16T06:31:09.957Z,15.30
2022-11-16T06:32:09.995Z,15.60
2022-11-16T06:33:10.920Z,16.50
2022-11-16T06:34:09.920Z,17.50
2022-11-16T06:35:09.911Z,17.50
2022-11-16T06:36:09.868Z,15.90
2022-11-16T06:37:09.925Z,17.80
2022-11-16T06:38:09.873Z,16.80
2022-11-16T06:39:09.853Z,17.10
2022-11-16T06:40:09.852Z,16.90
2022-11-16T06:41:09.831Z,16.10
2022-11-16T06:42:09.841Z,16.90
2022-11-16T06:43:09.816Z,16.20
2022-11-16T06:44:09.810Z,16.70
2022-11-16T06:45:09.794Z,15.10
2022-11-16T06:46:09.771Z,13.40
2022-11-16T06:47:09.797Z,15.70
2022-11-16T06:48:10.037Z,16.20
2022-11-16T06:49:09.790Z,17.80
2022-11-16T06:50:09.742Z,18.00
2022-11-16T06:51:09.735Z,16.30
2022-11-16T06:52:09.733Z,15.60
2022-11-16T06:53:09.713Z,16.20
2022-11-16T06:54:09.727Z,15.20
2022-11-16T06:55:09.700Z,16.90
2022-11-16T06:56:09.691Z,16.00
2022-11-16T06:57:09.702Z,15.90
2022-11-16T06:58:09.674Z,17.70
2022-11-16T06:59:09.661Z,16.90
2022-11-16T07:00:09.696Z,16.80
2022-11-16T07:01:09.637Z,14.80
2022-11-16T07:02:09.671Z,16.40
2022-11-16T07:03:10.627Z,16.80
2022-11-16T07:04:09.702Z,16.40
2022-11-16T07:05:09.624Z,18.00
2022-11-16T07:06:09.590Z,18.70
2022-11-16T07:07:09.662Z,18.20
2022-11-16T07:08:09.593Z,19.00
2022-11-16T07:09:09.559Z,20.90
2022-11-16T07:10:09.552Z,20.20
2022-11-16T07:11:09.547Z,17.00
2022-11-16T07:12:09.559Z,17.70
2022-11-16T07:13:09.513Z,17.30
2022-11-16T07:14:09.509Z,15.30
2022-11-16T07:15:09.496Z,18.20
2022-11-16T07:16:09.488Z,14.60
2022-11-16T07:17:09.780Z,15.30
2022-11-16T07:18:10.476Z,16.80
2022-11-16T07:19:09.454Z,18.90
2022-11-16T07:20:09.774Z,17.60
2022-11-16T07:21:09.444Z,18.90
2022-11-16T07:22:09.434Z,19.50
2022-11-16T07:23:13.996Z,17.80
2022-11-16T07:24:10.423Z,18.80
2022-11-16T07:25:09.421Z,20.30
2022-11-16T07:26:09.396Z,25.50
2022-11-16T07:27:09.380Z,29.80
2022-11-16T07:28:09.377Z,31.80
2022-11-16T07:29:09.368Z,36.60
2022-11-16T07:30:09.381Z,40.70
2022-11-16T07:31:09.349Z,36.60
2022-11-16T07:32:09.336Z,29.10
2022-11-16T07:33:09.317Z,21.70
2022-11-16T07:34:09.351Z,18.40
2022-11-16T07:35:09.329Z,22.10
2022-11-16T07:36:09.369Z,22.80
2022-11-16T07:37:09.290Z,23.70
2022-11-16T07:38:09.275Z,22.60
2022-11-16T07:39:09.268Z,25.50
2022-11-16T07:40:09.262Z,28.30
2022-11-16T07:41:09.246Z,21.00
2022-11-16T07:42:09.246Z,16.10
2022-11-16T07:43:09.216Z,17.60
2022-11-16T07:44:12.102Z,19.50
2022-11-16T07:45:10.204Z,16.20
2022-11-16T07:46:44.548Z,19.80
2022-11-16T07:47:10.206Z,17.00
2022-11-16T07:48:10.174Z,18.10
2022-11-16T07:49:11.468Z,16.00
2022-11-16T07:50:10.158Z,13.90
2022-11-16T07:51:09.140Z,15.60
2022-11-16T07:52:09.361Z,19.50
2022-11-16T07:53:09.151Z,14.70
2022-11-16T07:54:09.128Z,13.70
2022-11-16T07:55:09.111Z,13.80
2022-11-16T07:56:09.097Z,14.50
2022-11-16T07:57:09.161Z,18.90
2022-11-16T07:58:09.094Z,18.70
2022-11-16T07:59:09.060Z,16.10
2022-11-16T08:00:09.063Z,14.70
2022-11-16T08:01:09.065Z,16.80
2022-11-16T08:02:09.079Z,15.90
2022-11-16T08:03:09.035Z,17.00
2022-11-16T08:04:09.025Z,18.80
2022-11-16T08:05:09.023Z,18.80
2022-11-16T08:06:08.988Z,18.50
2022-11-16T08:07:09.054Z,18.10
2022-11-16T08:08:09.048Z,15.20
2022-11-16T08:09:08.968Z,17.00
2022-11-16T08:10:08.993Z,15.30
2022-11-16T08:11:08.955Z,14.40
2022-11-16T08:12:08.956Z,15.20
2022-11-16T08:13:08.928Z,16.70
2022-11-16T08:14:08.939Z,15.20
2022-11-16T08:15:08.925Z,14.70
2022-11-16T08:16:08.901Z,14.00
2022-11-16T08:17:08.911Z,16.70
2022-11-16T08:18:08.880Z,14.20
2022-11-16T08:19:08.874Z,15.40
2022-11-16T08:20:08.872Z,15.40
2022-11-16T08:21:08.850Z,15.30
2022-11-16T08:22:08.856Z,15.70
2022-11-16T08:23:08.851Z,14.90
2022-11-16T08:24:08.906Z,16.50
2022-11-16T08:25:08.800Z,15.10
2022-11-16T08:26:09.802Z,14.30
2022-11-16T08:27:08.796Z,16.10
2022-11-16T08:28:08.846Z,15.30
2022-11-16T08:29:08.771Z,17.40
2022-11-16T08:30:08.762Z,18.70
2022-11-16T08:31:08.754Z,25.50
2022-11-16T08:32:08.740Z,22.40
2022-11-16T08:33:08.747Z,18.30
2022-11-16T08:34:08.791Z,16.80
2022-11-16T08:35:08.726Z,16.90
2022-11-16T08:36:13.828Z,15.40
2022-11-16T08:37:10.708Z,16.10
2022-11-16T08:38:08.689Z,15.30
2022-11-16T08:39:08.707Z,19.10
2022-11-16T08:40:08.747Z,24.70
2022-11-16T08:41:08.692Z,16.00
2022-11-16T08:42:08.653Z,17.30
2022-11-16T08:43:08.644Z,18.10
2022-11-16T08:44:08.661Z,17.00
2022-11-16T08:45:08.613Z,21.20
2022-11-16T08:46:08.607Z,17.60
2022-11-16T08:47:08.596Z,16.40
2022-11-16T08:48:08.588Z,16.40
2022-11-16T08:49:08.599Z,17.20
2022-11-16T08:50:08.580Z,15.60
2022-11-16T08:51:23.533Z,17.80
2022-11-16T08:52:10.561Z,15.70
2022-11-16T08:53:08.577Z,17.60
2022-11-16T08:54:08.558Z,15.30
2022-11-16T08:55:40.529Z,16.60
2022-11-16T08:56:08.521Z,16.70
2022-11-16T08:57:08.505Z,16.60
2022-11-16T08:58:08.499Z,15.30
2022-11-16T08:59:08.527Z,18.40
2022-11-16T09:00:08.512Z,16.90
2022-11-16T09:01:08.479Z,17.60
2022-11-16T09:02:08.547Z,15.60
2022-11-16T09:03:08.454Z,18.90
2022-11-16T09:04:08.445Z,18.00
2022-11-16T09:05:08.438Z,17.90
2022-11-16T09:06:09.534Z,18.10
2022-11-16T09:07:08.513Z,19.10
2022-11-16T09:08:08.406Z,19.10
2022-11-16T09:09:08.398Z,20.70
2022-11-16T09:10:08.397Z,22.50
2022-11-16T09:11:08.371Z,18.00
2022-11-16T09:12:08.385Z,16.80
2022-11-16T09:13:08.356Z,17.40
2022-11-16T09:14:08.335Z,19.30
2022-11-16T09:15:08.334Z,20.00
2022-11-16T09:16:08.330Z,19.10
2022-11-16T09:17:08.310Z,17.60
2022-11-16T09:18:08.328Z,20.90
2022-11-16T09:19:08.314Z,20.60
2022-11-16T09:20:08.300Z,18.80
2022-11-16T09:21:08.264Z,19.90
2022-11-16T09:22:08.267Z,19.90
2022-11-16T09:23:08.252Z,19.90
2022-11-16T09:24:08.246Z,20.50
2022-11-16T09:25:08.242Z,23.60
2022-11-16T09:26:08.241Z,20.80
2022-11-16T09:27:08.210Z,19.30
2022-11-16T09:28:08.201Z,20.60
2022-11-16T09:29:08.205Z,17.80
2022-11-16T09:30:08.177Z,16.30
2022-11-16T09:31:08.167Z,17.70
2022-11-16T09:32:08.147Z,18.20
2022-11-16T09:33:08.161Z,18.10
2022-11-16T09:34:08.153Z,17.20
2022-11-16T09:35:08.144Z,16.60
2022-11-16T09:36:09.116Z,18.90
2022-11-16T09:37:08.113Z,18.20
2022-11-16T09:38:08.116Z,36.80
2022-11-16T09:39:29.619Z,34.90
2022-11-16T09:40:10.084Z,34.70
2022-11-16T09:41:08.060Z,29.50
2022-11-16T09:42:08.076Z,26.90
2022-11-16T09:43:08.139Z,26.10
2022-11-16T09:44:08.065Z,24.30
2022-11-16T09:45:08.039Z,19.50
2022-11-16T09:46:08.026Z,18.80
2022-11-16T09:47:08.028Z,17.70
2022-11-16T09:48:08.000Z,16.70
2022-11-16T09:49:17.376Z,20.60
2022-11-16T09:50:10.006Z,17.80
2022-11-16T09:51:07.976Z,15.00
2022-11-16T09:52:07.966Z,17.20
2022-11-16T09:53:07.959Z,18.20
2022-11-16T09:54:07.955Z,15.90
2022-11-16T09:55:10.820Z,15.60
2022-11-16T09:56:07.976Z,15.70
2022-11-16T09:57:12.153Z,15.90
2022-11-16T09:58:08.911Z,16.20
2022-11-16T09:59:09.386Z,16.20
2022-11-16T10:00:07.912Z,16.30
2022-11-16T10:01:07.956Z,14.90
2022-11-16T10:02:07.861Z,14.60
2022-11-16T10:03:07.860Z,13.50
2022-11-16T10:04:07.847Z,14.80
2022-11-16T10:05:07.857Z,13.40
2022-11-16T10:06:07.846Z,13.20
2022-11-16T10:07:07.915Z,13.50
2022-11-16T10:08:07.816Z,13.10
2022-11-16T10:09:07.827Z,12.20
2022-11-16T10:10:07.784Z,13.90
2022-11-16T10:11:07.783Z,14.60
2022-11-16T10:12:07.825Z,13.00
2022-11-16T10:13:07.763Z,13.40
2022-11-16T10:14:07.754Z,14.10
2022-11-16T10:15:07.810Z,13.30
2022-11-16T10:16:07.734Z,12.50
2022-11-16T10:17:07.750Z,12.40
2022-11-16T10:18:07.730Z,12.20
2022-11-16T10:19:07.727Z,13.30
2022-11-16T10:20:07.688Z,11.30
2022-11-16T10:21:07.703Z,13.60
2022-11-16T10:22:07.671Z,12.40
2022-11-16T10:23:07.682Z,13.20
2022-11-16T10:24:07.643Z,11.90
2022-11-16T10:25:07.664Z,10.90
2022-11-16T10:26:07.638Z,11.40
2022-11-16T10:27:07.606Z,10.70
2022-11-16T10:28:07.652Z,11.30
2022-11-16T10:29:07.617Z,8.60
2022-11-16T10:30:07.613Z,7.90
2022-11-16T10:31:07.643Z,7.50
2022-11-16T10:32:07.577Z,7.70
2022-11-16T10:33:11.099Z,7.60
2022-11-16T10:34:08.559Z,6.60
2022-11-16T10:35:07.540Z,6.80
2022-11-16T10:36:07.534Z,6.20
2022-11-16T10:37:07.545Z,6.50
2022-11-16T10:38:07.508Z,6.60
2022-11-16T10:39:07.521Z,8.00
2022-11-16T10:40:07.505Z,6.00
2022-11-16T10:41:07.505Z,7.10
2022-11-16T10:42:08.091Z,7.90
2022-11-16T10:43:08.477Z,6.20
2022-11-16T10:44:07.447Z,6.60
2022-11-16T10:45:07.452Z,6.00
2022-11-16T10:46:07.430Z,5.50
2022-11-16T10:47:07.404Z,5.30
2022-11-16T10:48:07.435Z,4.70
2022-11-16T10:49:07.401Z,9.20
2022-11-16T10:50:07.390Z,12.30
2022-11-16T10:51:07.383Z,16.70
2022-11-16T10:52:07.392Z,8.90
2022-11-16T10:53:07.376Z,11.30
2022-11-16T10:54:07.354Z,9.80
2022-11-16T10:55:07.328Z,7.40
2022-11-16T10:56:07.321Z,14.90
2022-11-16T10:57:07.309Z,7.20
2022-11-16T10:58:07.300Z,7.80
2022-11-16T10:59:07.306Z,4.00
2022-11-16T11:00:12.531Z,6.50
2022-11-16T11:01:09.374Z,7.80
2022-11-16T11:02:07.278Z,4.50
2022-11-16T11:03:07.312Z,5.20
2022-11-16T11:04:07.276Z,6.20
2022-11-16T11:05:07.229Z,3.70
2022-11-16T11:06:07.218Z,3.60
2022-11-16T11:07:07.271Z,4.20
2022-11-16T11:08:07.202Z,4.60
2022-11-16T11:09:07.183Z,3.70
2022-11-16T11:10:07.192Z,5.10
2022-11-16T11:11:07.166Z,4.90
2022-11-16T11:12:07.153Z,5.10
2022-11-16T11:13:07.163Z,4.40
2022-11-16T11:14:07.147Z,3.40
2022-11-16T11:15:07.175Z,8.30
2022-11-16T11:16:07.125Z,3.30
2022-11-16T11:17:07.105Z,5.00
2022-11-16T11:18:07.096Z,4.10
2022-11-16T11:19:07.175Z,4.10
2022-11-16T11:20:07.102Z,3.80
2022-11-16T11:21:07.075Z,3.90
2022-11-16T11:22:07.065Z,4.20
2022-11-16T11:23:07.047Z,4.10
2022-11-16T11:24:42.327Z,3.00
2022-11-16T11:25:08.067Z,3.50
2022-11-16T11:26:07.018Z,4.40
2022-11-16T11:27:07.013Z,3.70
2022-11-16T11:28:06.999Z,3.20
2022-11-16T11:29:06.996Z,4.10
2022-11-16T11:30:06.998Z,3.10
2022-11-16T11:31:06.972Z,4.10
2022-11-16T11:32:07.959Z,4.80
2022-11-16T11:33:06.974Z,4.60
2022-11-16T11:34:06.933Z,3.00
2022-11-16T11:35:07.024Z,3.60
2022-11-16T11:36:06.922Z,3.20
2022-11-16T11:37:06.906Z,4.70
2022-11-16T11:38:08.251Z,3.40
2022-11-16T11:39:07.955Z,3.20
2022-11-16T11:40:06.894Z,5.90
2022-11-16T11:41:06.865Z,4.30
2022-11-16T11:42:06.866Z,3.40
2022-11-16T11:43:06.866Z,4.30
2022-11-16T11:44:06.843Z,3.00
2022-11-16T11:45:06.846Z,3.70
2022-11-16T11:46:06.805Z,4.90
2022-11-16T11:47:50.226Z,7.80
2022-11-16T11:48:08.802Z,3.60
2022-11-16T11:49:06.779Z,6.20
2022-11-16T11:50:06.760Z,4.10
2022-11-16T11:51:06.862Z,5.70
2022-11-16T11:52:06.746Z,4.00
2022-11-16T11:53:06.745Z,3.20
2022-11-16T11:54:06.773Z,4.50
2022-11-16T11:55:06.791Z,4.30
2022-11-16T11:56:06.718Z,5.40
2022-11-16T11:57:06.703Z,4.70
2022-11-16T11:58:06.721Z,5.00
2022-11-16T11:59:06.709Z,3.60
2022-11-16T12:00:06.671Z,3.50
2022-11-16T12:01:06.670Z,3.70
2022-11-16T12:02:06.651Z,4.00
2022-11-16T12:03:06.741Z,4.50
2022-11-16T12:04:06.653Z,3.40
2022-11-16T12:05:06.625Z,4.90
2022-11-16T12:06:06.646Z,3.70
2022-11-16T12:07:06.747Z,6.70
2022-11-16T12:08:06.619Z,5.60
2022-11-16T12:09:06.598Z,4.60
2022-11-16T12:10:06.663Z,7.70
2022-11-16T12:11:06.582Z,7.40
2022-11-16T12:12:11.824Z,7.00
2022-11-16T12:13:07.568Z,4.20
2022-11-16T12:14:06.568Z,6.40
2022-11-16T12:15:06.588Z,5.00
2022-11-16T12:16:06.534Z,5.10
2022-11-16T12:17:06.520Z,3.60
2022-11-16T12:18:06.508Z,3.50
2022-11-16T12:19:06.515Z,4.80
2022-11-16T12:20:06.477Z,3.80
2022-11-16T12:21:06.599Z,4.80
2022-11-16T12:22:06.442Z,3.10
2022-11-16T12:23:06.446Z,2.40
2022-11-16T12:24:06.428Z,5.00
2022-11-16T12:25:06.425Z,3.20
2022-11-16T12:26:06.462Z,3.60
2022-11-16T12:27:06.417Z,4.50
2022-11-16T12:28:06.396Z,4.00
2022-11-16T12:29:06.388Z,5.30
2022-11-16T12:30:06.374Z,4.80
2022-11-16T12:31:06.365Z,4.80
2022-11-16T12:32:06.373Z,4.90
2022-11-16T12:33:06.374Z,4.90
2022-11-16T12:34:06.341Z,3.40
2022-11-16T12:35:06.348Z,3.50
2022-11-16T12:36:06.313Z,4.60
2022-11-16T12:37:06.314Z,2.30
2022-11-16T12:38:06.304Z,3.60
2022-11-16T12:39:06.353Z,6.40
2022-11-16T12:40:06.284Z,5.10
2022-11-16T12:41:06.303Z,5.30
2022-11-16T12:42:06.260Z,2.80
2022-11-16T12:43:06.249Z,2.60
2022-11-16T12:44:06.249Z,4.20
2022-11-16T12:45:06.226Z,7.00
2022-11-16T12:46:06.242Z,4.40
2022-11-16T12:47:06.231Z,3.90
2022-11-16T12:48:06.223Z,5.80
2022-11-16T12:49:06.200Z,7.50
2022-11-16T12:50:06.199Z,3.30
2022-11-16T12:51:06.175Z,6.20
2022-11-16T12:52:06.156Z,4.90
2022-11-16T12:53:06.160Z,9.40
2022-11-16T12:54:06.142Z,13.10
2022-11-16T12:56:08.149Z,8.40
2022-11-16T12:57:06.134Z,17.70
2022-11-16T12:58:06.180Z,18.40
2022-11-16T12:59:06.129Z,14.00
2022-11-16T13:00:06.067Z,12.50
2022-11-16T13:01:06.126Z,10.80
2022-11-16T13:02:06.085Z,9.10
2022-11-16T13:03:06.047Z,9.60
2022-11-16T13:04:06.029Z,7.90